createdAt,value
2018-02-19T00:01:01.139Z,83.30
2018-02-19T00:03:29.476Z,81.40
2018-02-19T00:05:57.089Z,81.30
2018-02-19T00:08:25.405Z,81.50
2018-02-19T00:10:53.024Z,81.60
2018-02-19T00:13:21.404Z,80.80
2018-02-19T00:15:48.962Z,80.70
2018-02-19T00:18:16.516Z,80.50
2018-02-19T00:20:44.110Z,80.40
2018-02-19T00:23:11.703Z,80.70
2018-02-19T00:25:39.306Z,81.60
2018-02-19T00:28:06.910Z,81.50
2018-02-19T00:30:34.473Z,80.30
2018-02-19T00:33:02.038Z,79.90
2018-02-19T00:35:29.632Z,79.50
2018-02-19T00:37:57.197Z,79.80
2018-02-19T00:40:24.818Z,79.40
2018-02-19T00:42:52.426Z,79.30
2018-02-19T00:45:19.987Z,79.90
2018-02-19T00:47:47.589Z,80.20
2018-02-19T00:50:15.193Z,80.40
2018-02-19T00:52:42.745Z,79.80
2018-02-19T00:55:10.332Z,80.20
2018-02-19T00:57:37.910Z,80.90
2018-02-19T01:00:05.522Z,81.30
2018-02-19T01:02:33.094Z,81.40
2018-02-19T01:05:00.673Z,81.70
2018-02-19T01:07:28.279Z,81.70
2018-02-19T01:09:55.838Z,82.20
2018-02-19T01:12:23.432Z,82.00
2018-02-19T01:14:50.997Z,82.00
2018-02-19T01:17:18.577Z,82.50
2018-02-19T01:19:46.181Z,82.50
2018-02-19T01:22:13.761Z,82.50
2018-02-19T01:24:41.376Z,82.30
2018-02-19T01:27:08.961Z,83.10
2018-02-19T01:29:37.294Z,82.80
2018-02-19T01:32:04.883Z,82.70
2018-02-19T01:34:33.209Z,83.70
2018-02-19T01:37:00.802Z,83.60
2018-02-19T01:39:28.372Z,83.60
2018-02-19T01:41:55.971Z,83.30
2018-02-19T01:44:23.554Z,83.40
2018-02-19T01:46:51.882Z,83.20
2018-02-19T01:49:20.244Z,83.10
2018-02-19T01:51:47.802Z,83.10
2018-02-19T01:54:15.418Z,83.00
2018-02-19T01:56:42.980Z,83.30
2018-02-19T01:59:10.544Z,83.50
2018-02-19T02:01:38.155Z,83.60
2018-02-19T02:04:05.745Z,83.70
2018-02-19T02:06:34.114Z,83.80
2018-02-19T02:09:02.453Z,84.20
2018-02-19T02:11:32.111Z,84.10
2018-02-19T02:14:02.696Z,84.20
2018-02-19T02:16:32.444Z,84.20
2018-02-19T02:19:02.960Z,83.90
2018-02-19T02:21:32.424Z,83.90
2018-02-19T02:24:02.226Z,83.70
2018-02-19T02:26:31.597Z,83.70
2018-02-19T02:29:02.003Z,84.30
2018-02-19T02:31:29.631Z,83.60
2018-02-19T02:33:57.213Z,84.10
2018-02-19T02:36:24.807Z,84.20
2018-02-19T02:38:53.173Z,85.10
2018-02-19T02:41:20.769Z,84.20
2018-02-19T02:43:48.324Z,84.20
2018-02-19T02:46:15.960Z,83.90
2018-02-19T02:48:43.517Z,84.30
2018-02-19T02:51:11.081Z,84.20
2018-02-19T02:53:38.674Z,84.30
2018-02-19T02:56:06.260Z,84.00
2018-02-19T02:58:33.849Z,84.30
2018-02-19T03:01:01.449Z,84.20
2018-02-19T03:03:29.025Z,84.20
2018-02-19T03:05:56.613Z,84.60
2018-02-19T03:08:24.214Z,84.50
2018-02-19T03:10:52.542Z,84.40
2018-02-19T03:13:20.145Z,84.30
2018-02-19T03:15:47.698Z,84.00
2018-02-19T03:18:15.339Z,84.40
2018-02-19T03:20:42.901Z,84.70
2018-02-19T03:23:10.465Z,84.70
2018-02-19T03:25:38.050Z,84.50
2018-02-19T03:28:05.632Z,84.30
2018-02-19T03:30:33.230Z,84.40
2018-02-19T03:33:00.801Z,84.30
2018-02-19T03:35:28.422Z,84.40
2018-02-19T03:37:55.987Z,84.30
2018-02-19T03:40:23.575Z,84.20
2018-02-19T03:42:51.129Z,84.60
2018-02-19T03:45:18.726Z,84.60
2018-02-19T03:47:46.286Z,84.60
2018-02-19T03:50:13.868Z,84.40
2018-02-19T03:52:42.226Z,84.80
2018-02-19T03:55:09.841Z,84.80
2018-02-19T03:57:37.441Z,84.80
2018-02-19T04:00:05.054Z,84.40
2018-02-19T04:02:32.621Z,84.10
2018-02-19T04:05:00.227Z,83.80
2018-02-19T04:07:27.834Z,83.40
2018-02-19T04:09:56.150Z,82.90
2018-02-19T04:12:23.769Z,82.90
2018-02-19T04:14:52.090Z,83.00
2018-02-19T04:17:19.650Z,82.90
2018-02-19T04:19:47.265Z,82.60
2018-02-19T04:22:15.605Z,82.30
2018-02-19T04:24:43.201Z,82.30
2018-02-19T04:27:11.548Z,82.70
2018-02-19T04:29:39.180Z,82.70
2018-02-19T04:32:06.744Z,82.60
2018-02-19T04:34:34.319Z,82.40
2018-02-19T04:37:01.952Z,82.50
2018-02-19T04:39:29.544Z,82.40
2018-02-19T04:41:57.101Z,82.20
2018-02-19T04:44:33.277Z,82.20
2018-02-19T04:47:01.337Z,82.50
2018-02-19T04:49:28.966Z,82.10
2018-02-19T04:51:56.538Z,81.90
2018-02-19T04:54:24.101Z,81.80
2018-02-19T04:56:51.751Z,81.40
2018-02-19T04:59:19.314Z,81.80
2018-02-19T05:01:46.916Z,81.20
2018-02-19T05:04:14.493Z,81.10
2018-02-19T05:06:42.074Z,80.70
2018-02-19T05:09:10.475Z,80.70
2018-02-19T05:11:38.047Z,80.70
2018-02-19T05:14:05.652Z,80.80
2018-02-19T05:16:33.271Z,80.80
2018-02-19T05:19:00.833Z,80.80
2018-02-19T05:21:29.195Z,80.60
2018-02-19T05:23:56.837Z,80.60
2018-02-19T05:26:25.162Z,80.70
2018-02-19T05:28:52.714Z,80.60
2018-02-19T05:31:20.328Z,80.30
2018-02-19T05:33:47.934Z,80.70
2018-02-19T05:36:17.534Z,80.60
2018-02-19T05:38:45.128Z,80.60
2018-02-19T05:41:12.855Z,80.90
2018-02-19T05:43:40.419Z,80.30
2018-02-19T05:46:07.980Z,80.70
2018-02-19T05:48:35.588Z,80.60
2018-02-19T05:51:04.010Z,80.60
2018-02-19T05:53:31.620Z,80.20
2018-02-19T05:55:59.206Z,80.10
2018-02-19T05:58:27.561Z,79.80
2018-02-19T06:00:55.162Z,79.80
2018-02-19T06:03:23.533Z,80.30
2018-02-19T06:05:51.136Z,80.20
2018-02-19T06:08:18.725Z,80.80
2018-02-19T06:10:46.293Z,80.40
2018-02-19T06:13:13.887Z,80.90
2018-02-19T06:15:42.239Z,80.80
2018-02-19T06:18:09.848Z,80.80
2018-02-19T06:20:37.423Z,80.80
2018-02-19T06:23:05.056Z,80.60
2018-02-19T06:25:33.421Z,81.00
2018-02-19T06:28:01.764Z,81.30
2018-02-19T06:30:29.367Z,81.30
2018-02-19T06:32:57.704Z,80.90
2018-02-19T06:35:25.309Z,80.80
2018-02-19T06:37:53.703Z,80.60
2018-02-19T06:40:22.073Z,80.00
2018-02-19T06:42:49.658Z,79.90
2018-02-19T06:45:17.213Z,80.00
2018-02-19T06:47:44.815Z,80.30
2018-02-19T06:50:12.448Z,80.00
2018-02-19T06:52:40.041Z,80.50
2018-02-19T06:55:07.670Z,80.50
2018-02-19T06:57:35.244Z,80.80
2018-02-19T07:00:03.721Z,80.60
2018-02-19T07:02:31.321Z,80.80
2018-02-19T07:04:58.911Z,80.40
2018-02-19T07:07:27.243Z,81.20
2018-02-19T07:09:54.849Z,81.20
2018-02-19T07:12:22.457Z,81.20
2018-02-19T07:14:50.855Z,80.70
2018-02-19T07:17:18.442Z,80.80
2018-02-19T07:19:46.098Z,81.40
2018-02-19T07:22:13.711Z,81.00
2018-02-19T07:24:41.369Z,80.70
2018-02-19T07:27:08.958Z,80.30
2018-02-19T07:29:36.525Z,80.60
2018-02-19T07:32:04.164Z,80.50
2018-02-19T07:34:32.499Z,80.50
2018-02-19T07:37:00.908Z,80.70
2018-02-19T07:39:28.604Z,80.70
2018-02-19T07:41:56.259Z,81.40
2018-02-19T07:44:23.950Z,81.40
2018-02-19T07:46:51.547Z,81.80
2018-02-19T07:49:19.381Z,81.50
2018-02-19T07:51:47.831Z,80.50
2018-02-19T07:54:15.507Z,79.90
2018-02-19T07:56:43.321Z,80.90
2018-02-19T07:59:11.347Z,80.70
2018-02-19T08:01:39.879Z,80.40
2018-02-19T08:04:07.993Z,80.40
2018-02-19T08:06:38.512Z,79.50
2018-02-19T08:09:06.130Z,79.80
2018-02-19T08:11:34.887Z,79.70
2018-02-19T08:14:04.635Z,79.80
2018-02-19T08:16:34.477Z,79.60
2018-02-19T08:19:03.141Z,79.40
2018-02-19T08:21:32.615Z,78.80
2018-02-19T08:24:01.488Z,78.80
2018-02-19T08:26:30.269Z,78.50
2018-02-19T08:28:58.804Z,78.60
2018-02-19T08:31:27.150Z,79.90
2018-02-19T08:33:54.788Z,79.90
2018-02-19T08:36:22.403Z,79.60
2018-02-19T08:38:50.789Z,79.30
2018-02-19T08:41:19.213Z,78.70
2018-02-19T08:43:46.801Z,78.60
2018-02-19T08:46:14.449Z,78.30
2018-02-19T08:48:42.073Z,79.60
2018-02-19T08:51:09.664Z,79.70
2018-02-19T08:53:37.230Z,78.10
2018-02-19T08:56:05.702Z,77.90
2018-02-19T08:58:33.296Z,78.10
2018-02-19T09:01:01.784Z,78.10
2018-02-19T09:03:29.395Z,78.10
2018-02-19T09:05:57.064Z,78.30
2018-02-19T09:08:25.386Z,78.20
2018-02-19T09:10:53.723Z,77.80
2018-02-19T09:13:21.312Z,77.80
2018-02-19T09:15:48.889Z,78.10
2018-02-19T09:18:17.285Z,77.30
2018-02-19T09:20:46.140Z,77.30
2018-02-19T09:23:13.762Z,77.30
2018-02-19T09:25:41.321Z,77.80
2018-02-19T09:28:08.969Z,76.90
2018-02-19T09:30:36.690Z,77.50
2018-02-19T09:33:04.332Z,77.60
2018-02-19T09:35:31.891Z,77.40
2018-02-19T09:37:59.522Z,78.50
2018-02-19T09:40:27.947Z,77.80
2018-02-19T09:42:56.415Z,76.30
2018-02-19T09:45:23.965Z,76.20
2018-02-19T09:47:51.574Z,76.80
2018-02-19T09:50:19.165Z,76.70
2018-02-19T09:52:46.798Z,77.00
2018-02-19T09:55:14.391Z,77.00
2018-02-19T09:57:41.998Z,76.20
2018-02-19T10:00:09.566Z,75.60
2018-02-19T10:02:37.329Z,74.30
2018-02-19T10:05:04.894Z,73.10
2018-02-19T10:07:32.506Z,74.50
2018-02-19T10:10:00.382Z,74.10
2018-02-19T10:12:28.789Z,74.90
2018-02-19T10:14:56.814Z,74.70
2018-02-19T10:17:24.733Z,72.70
2018-02-19T10:19:53.148Z,73.80
2018-02-19T10:22:20.741Z,73.80
2018-02-19T10:24:48.374Z,72.80
2018-02-19T10:27:16.726Z,71.30
2018-02-19T10:29:44.356Z,71.30
2018-02-19T10:32:11.955Z,72.00
2018-02-19T10:34:39.591Z,73.70
2018-02-19T10:37:07.213Z,72.90
2018-02-19T10:39:35.554Z,72.10
2018-02-19T10:42:04.133Z,72.10
2018-02-19T10:44:32.127Z,73.90
2018-02-19T10:47:00.478Z,72.80
2018-02-19T10:49:28.053Z,72.80
2018-02-19T10:51:55.653Z,72.30
2018-02-19T10:54:23.357Z,72.70
2018-02-19T10:56:51.082Z,71.50
2018-02-19T10:59:19.424Z,72.30
2018-02-19T11:01:47.029Z,72.30
2018-02-19T11:04:16.660Z,72.50
2018-02-19T11:06:44.330Z,72.40
2018-02-19T11:09:11.960Z,72.30
2018-02-19T11:11:40.594Z,72.20
2018-02-19T11:14:08.185Z,72.20
2018-02-19T11:16:36.737Z,70.50
2018-02-19T11:19:04.525Z,70.90
2018-02-19T11:21:32.745Z,71.40
2018-02-19T11:24:00.673Z,71.20
2018-02-19T11:26:29.053Z,71.50
2018-02-19T11:28:56.669Z,71.10
2018-02-19T11:31:24.250Z,69.80
2018-02-19T11:33:51.879Z,69.30
2018-02-19T11:36:19.540Z,70.00
2018-02-19T11:38:55.343Z,70.50
2018-02-19T11:41:16.206Z,71.00
2018-02-19T11:43:43.835Z,71.00
2018-02-19T11:46:11.607Z,71.00
2018-02-19T11:48:40.066Z,70.70
2018-02-19T11:51:07.757Z,70.60
2018-02-19T11:53:35.325Z,70.90
2018-02-19T11:56:03.252Z,70.80
2018-02-19T11:58:31.611Z,71.50
2018-02-19T12:00:59.250Z,70.90
2018-02-19T12:03:26.873Z,70.70
2018-02-19T12:05:55.737Z,71.80
2018-02-19T12:08:23.342Z,71.80
2018-02-19T12:10:50.976Z,70.00
2018-02-19T12:13:18.814Z,70.40
2018-02-19T12:15:46.444Z,70.30
2018-02-19T12:18:14.778Z,71.30
2018-02-19T12:20:42.365Z,71.20
2018-02-19T12:23:10.042Z,69.90
2018-02-19T12:25:38.729Z,69.50
2018-02-19T12:28:07.337Z,70.40
2018-02-19T12:30:36.229Z,70.10
2018-02-19T12:33:04.297Z,70.10
2018-02-19T12:35:32.153Z,69.10
2018-02-19T12:37:59.950Z,68.50
2018-02-19T12:40:27.620Z,70.20
2018-02-19T12:42:55.400Z,69.70
2018-02-19T12:45:23.017Z,70.00
2018-02-19T12:47:50.726Z,70.20
2018-02-19T12:50:18.519Z,69.20
2018-02-19T12:52:46.852Z,70.20
2018-02-19T12:55:14.444Z,70.20
2018-02-19T12:57:43.125Z,71.40
2018-02-19T13:00:10.686Z,71.40
2018-02-19T13:02:38.329Z,71.20
2018-02-19T13:05:05.913Z,70.50
2018-02-19T13:07:33.546Z,69.70
2018-02-19T13:10:01.133Z,69.40
2018-02-19T13:12:29.111Z,69.10
2018-02-19T13:14:57.463Z,69.20
2018-02-19T13:17:25.186Z,69.20
2018-02-19T13:19:53.441Z,69.30
2018-02-19T13:22:21.778Z,70.20
2018-02-19T13:24:49.491Z,70.10
2018-02-19T13:27:17.098Z,69.70
2018-02-19T13:29:44.900Z,70.40
2018-02-19T13:32:12.492Z,70.90
2018-02-19T13:34:40.105Z,70.40
2018-02-19T13:37:07.725Z,69.80
2018-02-19T13:39:35.318Z,69.90
2018-02-19T13:42:02.999Z,70.40
2018-02-19T13:44:31.393Z,70.70
2018-02-19T13:46:59.741Z,71.10
2018-02-19T13:49:27.364Z,71.10
2018-02-19T13:51:54.998Z,71.40
2018-02-19T13:54:22.713Z,71.30
2018-02-19T13:56:50.282Z,70.50
2018-02-19T13:59:17.973Z,70.60
2018-02-19T14:01:46.417Z,71.40
2018-02-19T14:04:20.939Z,71.40
2018-02-19T14:06:48.934Z,70.80
2018-02-19T14:09:16.521Z,71.10
2018-02-19T14:11:44.425Z,71.50
2018-02-19T14:14:12.061Z,71.00
2018-02-19T14:16:39.679Z,71.10
2018-02-19T14:19:07.289Z,70.30
2018-02-19T14:21:35.660Z,71.20
2018-02-19T14:24:04.003Z,71.40
2018-02-19T14:26:31.603Z,71.20
2018-02-19T14:28:59.934Z,71.30
2018-02-19T14:31:27.554Z,71.20
2018-02-19T14:33:55.211Z,71.80
2018-02-19T14:36:29.175Z,71.70
2018-02-19T14:38:56.769Z,71.20
2018-02-19T14:41:25.235Z,71.00
2018-02-19T14:43:52.988Z,71.00
2018-02-19T14:46:20.598Z,71.20
2018-02-19T14:48:48.191Z,71.50
2018-02-19T14:51:17.672Z,71.90
2018-02-19T14:53:45.200Z,71.90
2018-02-19T14:56:13.612Z,71.40
2018-02-19T14:58:41.201Z,71.40
2018-02-19T15:01:08.819Z,71.70
2018-02-19T15:03:36.454Z,72.00
2018-02-19T15:06:04.041Z,72.30
2018-02-19T15:08:32.365Z,71.90
2018-02-19T15:10:59.974Z,71.90
2018-02-19T15:13:28.321Z,72.20
2018-02-19T15:15:56.676Z,72.10
2018-02-19T15:18:24.277Z,72.20
2018-02-19T15:20:51.872Z,72.20
2018-02-19T15:23:20.198Z,71.80
2018-02-19T15:25:47.884Z,71.80
2018-02-19T15:28:15.532Z,72.30
2018-02-19T15:30:43.176Z,72.20
2018-02-19T15:33:11.073Z,72.00
2018-02-19T15:35:47.329Z,72.20
2018-02-19T15:38:15.313Z,72.00
2018-02-19T15:40:42.943Z,72.40
2018-02-19T15:43:10.626Z,72.50
2018-02-19T15:45:38.526Z,72.10
2018-02-19T15:48:06.925Z,73.00
2018-02-19T15:50:34.590Z,73.00
2018-02-19T15:53:02.205Z,72.40
2018-02-19T15:55:30.562Z,72.50
2018-02-19T15:57:58.157Z,72.50
2018-02-19T16:00:25.741Z,72.90
2018-02-19T16:02:54.140Z,73.30
2018-02-19T16:05:21.705Z,73.20
2018-02-19T16:07:50.178Z,73.10
2018-02-19T16:10:17.891Z,73.10
2018-02-19T16:12:46.400Z,73.30
2018-02-19T16:15:14.777Z,73.10
2018-02-19T16:17:43.121Z,73.20
2018-02-19T16:20:10.681Z,73.10
2018-02-19T16:22:39.168Z,73.30
2018-02-19T16:25:07.770Z,73.30
2018-02-19T16:27:35.358Z,73.20
2018-02-19T16:30:17.900Z,73.20
2018-02-19T16:32:45.444Z,73.20
2018-02-19T16:35:13.077Z,73.40
2018-02-19T16:37:40.711Z,73.70
2018-02-19T16:40:08.441Z,74.30
2018-02-19T16:42:36.040Z,73.60
2018-02-19T16:45:03.698Z,73.70
2018-02-19T16:47:31.283Z,73.90
2018-02-19T16:49:59.167Z,73.50
2018-02-19T16:52:27.516Z,74.20
2018-02-19T16:54:55.112Z,74.10
2018-02-19T16:57:23.604Z,74.40
2018-02-19T16:59:51.279Z,74.40
2018-02-19T17:02:18.896Z,74.90
2018-02-19T17:04:46.552Z,74.00
2018-02-19T17:07:14.170Z,73.60
2018-02-19T17:09:41.740Z,73.70
2018-02-19T17:12:09.335Z,74.10
2018-02-19T17:14:36.913Z,73.70
2018-02-19T17:17:04.557Z,74.00
2018-02-19T17:19:44.144Z,73.90
2018-02-19T17:22:12.138Z,74.20
2018-02-19T17:24:50.828Z,73.70
2018-02-19T17:27:19.580Z,74.30
2018-02-19T17:29:47.174Z,73.80
2018-02-19T17:32:14.819Z,74.10
2018-02-19T17:34:43.216Z,74.00
2018-02-19T17:37:12.585Z,74.00
2018-02-19T17:39:40.240Z,74.00
2018-02-19T17:42:07.829Z,74.40
2018-02-19T17:44:35.460Z,74.30
2018-02-19T17:47:03.088Z,75.00
2018-02-19T17:49:30.821Z,74.70
2018-02-19T17:51:59.179Z,74.60
2018-02-19T17:54:26.776Z,74.50
2018-02-19T17:56:54.414Z,74.40
2018-02-19T17:59:22.922Z,74.60
2018-02-19T18:01:50.528Z,74.60
2018-02-19T18:04:18.092Z,74.50
2018-02-19T18:06:45.727Z,74.40
2018-02-19T18:09:13.381Z,74.10
2018-02-19T18:11:40.973Z,74.40
2018-02-19T18:14:08.562Z,74.70
2018-02-19T18:16:36.182Z,74.80
2018-02-19T18:19:03.813Z,74.60
2018-02-19T18:21:32.144Z,75.00
2018-02-19T18:23:59.746Z,75.00
2018-02-19T18:26:28.137Z,74.50
2018-02-19T18:28:55.724Z,74.50
2018-02-19T18:31:23.349Z,73.90
2018-02-19T18:33:51.689Z,74.50
2018-02-19T18:36:19.302Z,74.50
2018-02-19T18:38:46.862Z,74.40
2018-02-19T18:41:14.456Z,74.50
2018-02-19T18:43:42.019Z,74.50
2018-02-19T18:46:10.234Z,74.50
2018-02-19T18:48:37.810Z,74.80
2018-02-19T18:51:06.183Z,74.50
2018-02-19T18:53:34.628Z,74.70
2018-02-19T18:56:02.232Z,74.70
2018-02-19T18:58:30.572Z,74.90
2018-02-19T19:00:58.206Z,74.90
2018-02-19T19:03:25.796Z,74.60
2018-02-19T19:05:53.413Z,75.10
2018-02-19T19:08:32.764Z,75.20
2018-02-19T19:11:00.425Z,75.40
2018-02-19T19:13:28.008Z,75.40
2018-02-19T19:15:55.624Z,75.00
2018-02-19T19:18:24.011Z,75.00
2018-02-19T19:20:51.613Z,75.00
2018-02-19T19:23:19.196Z,75.10
2018-02-19T19:25:47.688Z,74.70
2018-02-19T19:28:16.024Z,75.50
2018-02-19T19:30:43.593Z,75.40
2018-02-19T19:33:11.188Z,75.50
2018-02-19T19:35:39.564Z,75.10
2018-02-19T19:38:07.301Z,75.10
2018-02-19T19:40:34.930Z,75.00
2018-02-19T19:43:02.537Z,74.70
2018-02-19T19:45:30.110Z,74.60
2018-02-19T19:47:57.676Z,75.70
2018-02-19T19:50:25.364Z,75.10
2018-02-19T19:52:52.960Z,75.20
2018-02-19T19:55:20.569Z,75.40
2018-02-19T19:57:48.939Z,75.40
2018-02-19T20:00:16.528Z,75.40
2018-02-19T20:02:44.090Z,75.10
2018-02-19T20:05:11.691Z,75.20
2018-02-19T20:07:40.584Z,75.20
2018-02-19T20:10:08.141Z,75.50
2018-02-19T20:12:35.759Z,75.40
2018-02-19T20:15:03.358Z,75.20
2018-02-19T20:17:30.973Z,75.20
2018-02-19T20:19:59.315Z,75.50
2018-02-19T20:22:26.913Z,75.50
2018-02-19T20:24:55.312Z,76.20
2018-02-19T20:27:22.889Z,76.20
2018-02-19T20:29:51.174Z,76.20
2018-02-19T20:32:18.752Z,75.60
2018-02-19T20:34:46.304Z,75.60
2018-02-19T20:37:13.938Z,75.80
2018-02-19T20:39:41.551Z,76.10
2018-02-19T20:42:09.196Z,75.90
2018-02-19T20:44:36.752Z,76.10
2018-02-19T20:47:04.413Z,76.10
2018-02-19T20:49:32.009Z,76.20
2018-02-19T20:52:00.408Z,76.30
2018-02-19T20:54:28.776Z,76.00
2018-02-19T20:56:57.210Z,75.80
2018-02-19T20:59:24.779Z,75.70
2018-02-19T21:01:55.278Z,76.10
2018-02-19T21:04:22.895Z,76.10
2018-02-19T21:06:50.494Z,76.00
2018-02-19T21:09:18.163Z,76.10
2018-02-19T21:11:45.748Z,76.30
2018-02-19T21:14:13.384Z,76.10
2018-02-19T21:16:40.970Z,76.20
2018-02-19T21:19:08.548Z,76.00
2018-02-19T21:21:36.161Z,76.10
2018-02-19T21:24:04.495Z,75.60
2018-02-19T21:26:32.100Z,75.60
2018-02-19T21:29:00.427Z,75.10
2018-02-19T21:31:28.100Z,75.00
2018-02-19T21:33:55.671Z,75.10
2018-02-19T21:36:23.228Z,75.70
2018-02-19T21:38:50.839Z,75.80
2018-02-19T21:41:18.430Z,76.00
2018-02-19T21:43:46.057Z,76.70
2018-02-19T21:46:13.623Z,76.50
2018-02-19T21:48:41.230Z,76.30
2018-02-19T21:51:08.800Z,76.50
2018-02-19T21:53:36.422Z,76.50
2018-02-19T21:56:04.019Z,76.50
2018-02-19T21:58:31.625Z,76.90
2018-02-19T22:00:59.239Z,77.30
2018-02-19T22:03:26.847Z,76.60
2018-02-19T22:05:54.408Z,76.80
2018-02-19T22:08:22.012Z,77.50
2018-02-19T22:10:49.620Z,77.20
2018-02-19T22:13:17.995Z,77.30
2018-02-19T22:15:46.345Z,76.80
2018-02-19T22:18:13.955Z,76.80
2018-02-19T22:20:41.548Z,76.90
2018-02-19T22:23:09.124Z,77.00
2018-02-19T22:25:36.736Z,77.30
2018-02-19T22:28:04.293Z,77.60
2018-02-19T22:30:31.889Z,77.70
2018-02-19T22:32:59.510Z,77.50
2018-02-19T22:35:27.073Z,77.40
2018-02-19T22:37:55.407Z,77.20
2018-02-19T22:40:23.033Z,77.20
2018-02-19T22:42:50.619Z,77.10
2018-02-19T22:45:18.218Z,77.50
2018-02-19T22:47:45.777Z,77.60
2018-02-19T22:50:13.363Z,78.10
2018-02-19T22:52:41.738Z,78.20
2018-02-19T22:55:10.098Z,78.40
2018-02-19T22:57:37.714Z,78.30
2018-02-19T23:00:05.281Z,79.10
2018-02-19T23:02:32.865Z,78.20
2018-02-19T23:05:00.464Z,78.60
2018-02-19T23:07:28.079Z,78.60
2018-02-19T23:09:55.645Z,78.50
2018-02-19T23:12:23.264Z,78.30
2018-02-19T23:14:50.821Z,78.50
2018-02-19T23:17:18.377Z,78.70
2018-02-19T23:19:45.993Z,78.80
2018-02-19T23:22:13.576Z,78.80
2018-02-19T23:24:41.980Z,78.90
2018-02-19T23:27:09.546Z,78.90
2018-02-19T23:29:37.135Z,79.10
2018-02-19T23:32:04.745Z,79.40
2018-02-19T23:34:33.074Z,79.10
2018-02-19T23:37:00.716Z,79.10
2018-02-19T23:39:28.292Z,79.30
2018-02-19T23:41:55.895Z,79.90
2018-02-19T23:44:24.242Z,79.70
2018-02-19T23:46:51.876Z,79.50
2018-02-19T23:49:19.456Z,79.60
2018-02-19T23:51:47.822Z,79.80
2018-02-19T23:54:20.248Z,79.80
2018-02-19T23:56:47.859Z,79.60
2018-02-19T23:59:15.433Z,79.60
